Xichang, China
Current Conditions -  °F | °C
As of 3:00 PM on Friday 24 Oct 2014 (Local Time) from ZPPP Reporting Station
Scattered Clouds Scattered Clouds  
Wind Chill: 68°   Ceiling: Unl
Heat Index: 68°   Visibility: 6mi
Dew Point: 45°   Wind: 11mph
Humidity: 43%   Direction: 240°WSW
Pressure: 30.18"   Gusts: NA
Location:  27.88°N, 102.3°E
Report Text: ZPPP 240700Z 24005MPS 200V270 9999 SCT023 20/07 Q1022 NOSIG
Loading
Personal Weather Stations






























Interactive Weather Map
Tropical Storm Tracking
New forecast layout! Learn more

10-Day Weather Forecast

Advertisements
Track Severe Weather on mobile